createdAt,value
2023-05-21T00:01:08.278Z,9.71
2023-05-21T00:03:36.531Z,9.74
2023-05-21T00:06:04.187Z,9.70
2023-05-21T00:08:31.504Z,9.73
2023-05-21T00:10:58.597Z,9.74
2023-05-21T00:13:25.923Z,9.73
2023-05-21T00:15:53.315Z,9.74
2023-05-21T00:18:22.386Z,9.74
2023-05-21T00:20:49.605Z,9.73
2023-05-21T00:23:18.818Z,9.77
2023-05-21T00:25:46.933Z,9.77
2023-05-21T00:28:14.087Z,9.75
2023-05-21T00:30:43.155Z,9.77
2023-05-21T00:33:10.630Z,9.76
2023-05-21T00:35:37.903Z,9.77
2023-05-21T00:38:05.315Z,9.82
2023-05-21T00:40:32.611Z,9.86
2023-05-21T00:42:59.695Z,9.88
2023-05-21T00:45:29.760Z,9.91
2023-05-21T00:47:57.009Z,9.96
2023-05-21T00:50:24.425Z,9.99
2023-05-21T00:52:52.038Z,10.01
2023-05-21T00:55:19.291Z,10.04
2023-05-21T00:57:49.671Z,10.03
2023-05-21T01:00:17.407Z,10.04
2023-05-21T01:02:44.923Z,10.05
2023-05-21T01:05:13.243Z,10.08
2023-05-21T01:07:41.824Z,10.08
2023-05-21T01:10:11.228Z,10.12
2023-05-21T01:12:39.948Z,10.15
2023-05-21T01:15:07.844Z,10.17
2023-05-21T01:17:35.814Z,10.18
2023-05-21T01:20:12.713Z,10.20
2023-05-21T01:22:48.354Z,10.24
2023-05-21T01:25:15.569Z,10.24
2023-05-21T01:27:42.759Z,10.27
2023-05-21T01:30:10.927Z,10.30
2023-05-21T01:32:42.530Z,10.31
2023-05-21T01:35:14.783Z,10.32
2023-05-21T01:37:51.692Z,10.34
2023-05-21T01:40:45.672Z,10.36
2023-05-21T01:43:14.479Z,10.36
2023-05-21T01:45:44.290Z,10.37
2023-05-21T01:48:13.104Z,10.37
2023-05-21T01:50:41.945Z,10.38
2023-05-21T01:53:09.454Z,10.41
2023-05-21T01:55:39.757Z,10.41
2023-05-21T01:58:07.600Z,10.45
2023-05-21T02:00:35.892Z,10.46
2023-05-21T02:03:03.317Z,10.49
2023-05-21T02:05:30.665Z,10.51
2023-05-21T02:08:00.213Z,10.55
2023-05-21T02:10:27.683Z,10.57
2023-05-21T02:12:55.008Z,10.63
2023-05-21T02:15:22.600Z,10.67
2023-05-21T02:17:51.557Z,10.73
2023-05-21T02:20:19.987Z,10.79
2023-05-21T02:22:49.351Z,10.83
2023-05-21T02:25:18.574Z,10.86
2023-05-21T02:27:47.123Z,10.90
2023-05-21T02:30:16.300Z,10.91
2023-05-21T02:32:45.156Z,10.93
2023-05-21T02:35:13.718Z,10.92
2023-05-21T02:37:41.500Z,10.96
2023-05-21T02:40:10.322Z,10.97
2023-05-21T02:42:40.180Z,10.99
2023-05-21T02:45:11.506Z,11.01
2023-05-21T02:47:41.214Z,10.98
2023-05-21T02:50:09.552Z,11.01
2023-05-21T02:52:43.933Z,11.04
2023-05-21T02:55:11.391Z,11.05
2023-05-21T02:57:38.421Z,11.08
2023-05-21T03:00:06.396Z,11.09
2023-05-21T03:02:34.620Z,11.13
2023-05-21T03:05:01.776Z,11.14
2023-05-21T03:07:31.807Z,11.18
2023-05-21T03:09:59.007Z,11.19
2023-05-21T03:12:26.114Z,11.22
2023-05-21T03:14:53.350Z,11.25
2023-05-21T03:17:20.799Z,11.30
2023-05-21T03:19:49.346Z,11.33
2023-05-21T03:22:16.878Z,11.38
2023-05-21T03:24:45.357Z,11.46
2023-05-21T03:27:13.644Z,11.55
2023-05-21T03:29:40.762Z,11.62
2023-05-21T03:32:09.288Z,11.69
2023-05-21T03:34:36.703Z,11.78
2023-05-21T03:37:03.996Z,11.85
2023-05-21T03:39:32.432Z,11.90
2023-05-21T03:42:00.278Z,11.95
2023-05-21T03:44:45.076Z,12.02
2023-05-21T03:47:24.895Z,11.98
2023-05-21T03:49:52.997Z,12.05
2023-05-21T03:52:20.144Z,12.10
2023-05-21T03:54:47.417Z,12.14
2023-05-21T03:57:14.891Z,12.14
2023-05-21T03:59:42.028Z,12.15
2023-05-21T04:02:09.181Z,12.14
2023-05-21T04:04:37.283Z,12.16
2023-05-21T04:07:05.046Z,12.19
2023-05-21T04:09:32.702Z,12.27
2023-05-21T04:12:00.646Z,12.33
2023-05-21T04:14:27.745Z,12.38
2023-05-21T04:16:54.825Z,12.43
2023-05-21T04:19:22.112Z,12.44
2023-05-21T04:21:49.855Z,12.47
2023-05-21T04:24:18.816Z,12.46
2023-05-21T04:26:56.278Z,12.47
2023-05-21T04:29:23.649Z,12.42
2023-05-21T04:31:51.345Z,12.42
2023-05-21T04:34:19.025Z,12.40
2023-05-21T04:36:46.888Z,12.39
2023-05-21T04:39:15.882Z,12.37
2023-05-21T04:41:43.220Z,12.37
2023-05-21T04:44:15.145Z,12.36
2023-05-21T04:46:46.292Z,12.37
2023-05-21T04:49:13.787Z,12.43
2023-05-21T04:51:41.695Z,12.46
2023-05-21T04:54:09.061Z,12.59
2023-05-21T04:56:36.416Z,12.74
2023-05-21T04:59:05.634Z,12.92
2023-05-21T05:01:35.599Z,13.05
2023-05-21T05:04:02.941Z,13.13
2023-05-21T05:06:31.296Z,13.21
2023-05-21T05:08:58.767Z,13.29
2023-05-21T05:11:26.790Z,13.35
2023-05-21T05:13:54.174Z,13.36
2023-05-21T05:16:25.546Z,13.28
2023-05-21T05:18:54.210Z,13.21
2023-05-21T05:21:23.761Z,13.19
2023-05-21T05:23:51.148Z,13.25
2023-05-21T05:26:19.508Z,13.29
2023-05-21T05:28:46.961Z,13.36
2023-05-21T05:31:14.501Z,13.46
2023-05-21T05:33:43.419Z,13.61
2023-05-21T05:36:11.732Z,13.69
2023-05-21T05:38:39.212Z,13.81
2023-05-21T05:41:06.691Z,13.89
2023-05-21T05:43:34.739Z,13.85
2023-05-21T05:46:02.125Z,13.82
2023-05-21T05:48:29.466Z,13.83
2023-05-21T05:50:58.075Z,13.91
2023-05-21T05:53:26.613Z,14.00
2023-05-21T05:55:54.648Z,14.09
2023-05-21T05:58:21.749Z,14.17
2023-05-21T06:00:56.821Z,14.27
2023-05-21T06:03:25.168Z,14.35
2023-05-21T06:05:53.724Z,14.41
2023-05-21T06:08:21.078Z,14.35
2023-05-21T06:10:48.290Z,14.31
2023-05-21T06:13:16.048Z,14.25
2023-05-21T06:15:43.687Z,14.22
2023-05-21T06:18:11.858Z,14.23
2023-05-21T06:20:39.177Z,14.30
2023-05-21T06:23:09.036Z,14.43
2023-05-21T06:25:38.258Z,14.52
2023-05-21T06:28:06.001Z,14.64
2023-05-21T06:30:34.511Z,14.87
2023-05-21T06:33:02.727Z,15.03
2023-05-21T06:35:30.955Z,15.17
2023-05-21T06:37:59.778Z,15.21
2023-05-21T06:40:26.928Z,15.19
2023-05-21T06:42:56.840Z,15.24
2023-05-21T06:45:59.276Z,15.39
2023-05-21T06:48:36.243Z,15.45
2023-05-21T06:51:03.427Z,15.40
2023-05-21T06:53:30.620Z,15.37
2023-05-21T06:55:57.738Z,15.32
2023-05-21T06:58:43.884Z,15.24
2023-05-21T07:01:12.057Z,15.18
2023-05-21T07:03:39.369Z,15.08
2023-05-21T07:06:07.300Z,15.00
2023-05-21T07:08:34.692Z,14.91
2023-05-21T07:11:02.455Z,14.79
2023-05-21T07:13:31.153Z,14.76
2023-05-21T07:15:58.405Z,14.73
2023-05-21T07:18:26.683Z,14.72
2023-05-21T07:20:55.516Z,14.75
2023-05-21T07:23:22.927Z,14.81
2023-05-21T07:25:50.239Z,14.85
2023-05-21T07:28:17.711Z,14.86
2023-05-21T07:30:45.050Z,14.96
2023-05-21T07:33:15.328Z,15.07
2023-05-21T07:35:43.392Z,15.17
2023-05-21T07:38:13.217Z,15.28
2023-05-21T07:40:40.335Z,15.37
2023-05-21T07:43:07.524Z,15.43
2023-05-21T07:45:36.392Z,15.46
2023-05-21T07:48:05.371Z,15.55
2023-05-21T07:50:34.576Z,15.67
2023-05-21T07:53:01.954Z,15.87
2023-05-21T07:55:30.386Z,16.10
2023-05-21T07:57:57.690Z,16.37
2023-05-21T08:00:28.991Z,16.57
2023-05-21T08:02:58.039Z,16.73
2023-05-21T08:05:26.312Z,16.96
2023-05-21T08:07:53.393Z,17.21
2023-05-21T08:10:21.510Z,17.47
2023-05-21T08:12:51.196Z,17.63
2023-05-21T08:15:19.233Z,17.67
2023-05-21T08:17:46.517Z,17.59
2023-05-21T08:20:15.369Z,17.38
2023-05-21T08:22:44.604Z,17.16
2023-05-21T08:25:12.492Z,16.97
2023-05-21T08:27:40.094Z,16.86
2023-05-21T08:30:08.277Z,16.73
2023-05-21T08:32:35.701Z,16.65
2023-05-21T08:35:03.466Z,16.57
2023-05-21T08:38:08.746Z,16.50
2023-05-21T08:40:47.540Z,16.41
2023-05-21T08:43:16.699Z,16.32
2023-05-21T08:45:58.840Z,16.26
2023-05-21T08:48:31.353Z,16.27
2023-05-21T08:51:00.010Z,16.31
2023-05-21T08:53:37.216Z,16.39
2023-05-21T08:56:08.234Z,16.38
2023-05-21T08:58:49.003Z,16.36
2023-05-21T09:01:20.442Z,16.38
2023-05-21T09:03:54.483Z,16.46
2023-05-21T09:06:28.442Z,16.32
2023-05-21T09:09:03.135Z,16.23
2023-05-21T09:11:38.062Z,16.18
2023-05-21T09:14:06.539Z,16.20
2023-05-21T09:16:57.642Z,16.25
2023-05-21T09:19:25.119Z,16.27
2023-05-21T09:21:55.607Z,16.29
2023-05-21T09:24:32.065Z,16.30
2023-05-21T09:27:00.382Z,16.33
2023-05-21T09:29:27.537Z,16.35
2023-05-21T09:31:55.467Z,16.33
2023-05-21T09:34:25.408Z,16.29
2023-05-21T09:36:56.546Z,16.29
2023-05-21T09:39:30.236Z,16.35
2023-05-21T09:42:01.200Z,16.41
2023-05-21T09:44:28.387Z,16.49
2023-05-21T09:47:01.946Z,16.59
2023-05-21T09:49:30.416Z,16.72
2023-05-21T09:52:00.006Z,16.84
2023-05-21T09:54:32.685Z,16.93
2023-05-21T09:57:03.318Z,17.05
2023-05-21T09:59:40.035Z,17.20
2023-05-21T10:02:19.760Z,17.36
2023-05-21T10:04:50.255Z,17.53
2023-05-21T10:07:26.052Z,17.69
2023-05-21T10:09:58.538Z,17.80
2023-05-21T10:12:28.923Z,17.90
2023-05-21T10:15:03.325Z,18.01
2023-05-21T10:17:35.572Z,18.03
2023-05-21T10:20:05.036Z,18.03
2023-05-21T10:22:32.827Z,18.10
2023-05-21T10:25:03.864Z,18.21
2023-05-21T10:27:33.726Z,18.32
2023-05-21T10:30:01.851Z,18.40
2023-05-21T10:32:33.982Z,18.61
2023-05-21T10:35:02.673Z,18.96
2023-05-21T10:37:33.038Z,19.30
2023-05-21T10:40:00.574Z,19.48
2023-05-21T10:42:33.958Z,19.62
2023-05-21T10:45:24.805Z,19.71
2023-05-21T10:48:21.399Z,19.77
2023-05-21T10:51:01.993Z,19.77
2023-05-21T10:53:57.124Z,19.80
2023-05-21T10:56:29.345Z,19.73
2023-05-21T10:58:59.071Z,19.67
2023-05-21T11:01:30.106Z,19.69
2023-05-21T11:03:58.140Z,19.82
2023-05-21T11:06:26.671Z,19.97
2023-05-21T11:08:55.690Z,20.13
2023-05-21T11:11:45.225Z,20.39
2023-05-21T11:14:38.316Z,20.63
2023-05-21T11:17:36.576Z,20.86
2023-05-21T11:20:14.481Z,20.94
2023-05-21T11:22:41.787Z,20.85
2023-05-21T11:25:09.341Z,20.76
2023-05-21T11:27:40.845Z,20.63
2023-05-21T11:30:09.152Z,20.60
2023-05-21T11:32:47.755Z,20.57
2023-05-21T11:35:15.238Z,20.49
2023-05-21T11:37:46.153Z,20.32
2023-05-21T11:40:27.319Z,20.10
2023-05-21T11:42:55.961Z,19.77
2023-05-21T11:45:28.458Z,19.49
2023-05-21T11:47:56.573Z,19.29
2023-05-21T11:50:24.173Z,19.14
2023-05-21T11:52:52.234Z,19.03
2023-05-21T11:55:26.152Z,18.93
2023-05-21T11:57:54.662Z,18.76
2023-05-21T12:00:22.084Z,18.62
2023-05-21T12:02:53.350Z,18.52
2023-05-21T12:05:21.609Z,18.39
2023-05-21T12:07:52.295Z,18.30
2023-05-21T12:10:23.211Z,18.27
2023-05-21T12:12:56.615Z,18.29
2023-05-21T12:15:26.427Z,18.39
2023-05-21T12:17:54.919Z,18.58
2023-05-21T12:20:23.423Z,18.87
2023-05-21T12:22:50.941Z,19.13
2023-05-21T12:25:20.360Z,19.31
2023-05-21T12:27:52.660Z,19.30
2023-05-21T12:30:21.467Z,19.22
2023-05-21T12:32:49.186Z,19.09
2023-05-21T12:35:24.515Z,18.96
2023-05-21T12:37:52.284Z,18.79
2023-05-21T12:40:20.345Z,18.63
2023-05-21T12:42:48.104Z,18.52
2023-05-21T12:45:18.924Z,18.39
2023-05-21T12:47:50.388Z,18.27
2023-05-21T12:50:21.326Z,18.17
2023-05-21T12:52:49.204Z,18.18
2023-05-21T12:55:17.494Z,18.21
2023-05-21T12:57:44.740Z,18.32
2023-05-21T13:00:12.409Z,18.45
2023-05-21T13:02:44.983Z,18.60
2023-05-21T13:05:20.246Z,18.74
2023-05-21T13:07:48.154Z,18.84
2023-05-21T13:10:18.945Z,18.88
2023-05-21T13:12:48.176Z,18.87
2023-05-21T13:15:15.751Z,18.87
2023-05-21T13:17:43.422Z,18.87
2023-05-21T13:20:12.831Z,18.84
2023-05-21T13:22:50.805Z,18.88
2023-05-21T13:25:22.510Z,18.99
2023-05-21T13:27:51.371Z,19.26
2023-05-21T13:30:19.299Z,19.67
2023-05-21T13:32:47.304Z,20.66
2023-05-21T13:35:16.715Z,22.43
2023-05-21T13:37:44.590Z,24.04
2023-05-21T13:40:16.768Z,25.38
2023-05-21T13:42:46.022Z,26.72
2023-05-21T13:45:16.241Z,27.72
2023-05-21T13:47:44.571Z,27.96
2023-05-21T13:50:12.171Z,27.49
2023-05-21T13:52:40.176Z,26.69
2023-05-21T13:55:07.741Z,26.00
2023-05-21T13:57:35.267Z,25.72
2023-05-21T14:00:03.677Z,26.33
2023-05-21T14:02:36.035Z,27.40
2023-05-21T14:05:03.474Z,28.52
2023-05-21T14:07:33.077Z,29.53
2023-05-21T14:10:00.693Z,30.21
2023-05-21T14:12:28.606Z,30.09
2023-05-21T14:14:55.798Z,29.23
2023-05-21T14:17:22.960Z,28.16
2023-05-21T14:19:50.099Z,27.12
2023-05-21T14:22:17.450Z,26.23
2023-05-21T14:24:44.461Z,25.43
2023-05-21T14:27:13.109Z,24.67
2023-05-21T14:29:41.745Z,24.01
2023-05-21T14:32:08.841Z,23.32
2023-05-21T14:34:35.937Z,22.77
2023-05-21T14:37:03.260Z,22.24
2023-05-21T14:39:30.371Z,21.81
2023-05-21T14:41:57.564Z,21.45
2023-05-21T14:44:24.727Z,21.22
2023-05-21T14:46:51.883Z,21.12
2023-05-21T14:49:19.062Z,21.65
2023-05-21T14:51:47.653Z,22.07
2023-05-21T14:54:14.995Z,22.28
2023-05-21T14:56:42.245Z,22.66
2023-05-21T14:59:11.516Z,22.89
2023-05-21T15:01:39.505Z,23.02
2023-05-21T15:04:08.137Z,22.96
2023-05-21T15:06:35.711Z,22.78
2023-05-21T15:09:02.859Z,23.29
2023-05-21T15:11:30.347Z,23.69
2023-05-21T15:13:57.616Z,23.69
2023-05-21T15:16:24.896Z,23.71
2023-05-21T15:18:52.071Z,23.84
2023-05-21T15:21:20.027Z,24.13
2023-05-21T15:23:47.134Z,24.46
2023-05-21T15:26:14.152Z,25.10
2023-05-21T15:28:41.466Z,25.38
2023-05-21T15:31:08.863Z,25.01
2023-05-21T15:33:36.051Z,24.48
2023-05-21T15:36:03.324Z,24.45
2023-05-21T15:38:30.663Z,24.95
2023-05-21T15:40:58.029Z,25.82
2023-05-21T15:43:25.258Z,26.72
2023-05-21T15:45:52.373Z,27.52
2023-05-21T15:48:22.720Z,27.76
2023-05-21T15:50:50.205Z,27.62
2023-05-21T15:53:17.588Z,27.83
2023-05-21T15:55:45.056Z,28.26
2023-05-21T15:58:12.224Z,28.63
2023-05-21T16:00:40.799Z,28.87
2023-05-21T16:03:08.427Z,28.77
2023-05-21T16:05:35.878Z,27.94
2023-05-21T16:08:03.129Z,26.78
2023-05-21T16:10:30.587Z,25.65
2023-05-21T16:12:58.255Z,24.69
2023-05-21T16:15:26.736Z,23.97
2023-05-21T16:17:53.983Z,23.85
2023-05-21T16:20:22.289Z,23.76
2023-05-21T16:22:49.893Z,23.36
2023-05-21T16:25:17.340Z,22.76
2023-05-21T16:27:44.695Z,22.08
2023-05-21T16:30:12.178Z,21.49
2023-05-21T16:32:39.727Z,20.99
2023-05-21T16:35:07.664Z,20.55
2023-05-21T16:37:34.896Z,20.21
2023-05-21T16:40:02.471Z,19.85
2023-05-21T16:42:33.064Z,19.53
2023-05-21T16:45:00.130Z,19.24
2023-05-21T16:47:27.733Z,19.03
2023-05-21T16:49:55.904Z,18.81
2023-05-21T16:52:23.571Z,18.62
2023-05-21T16:54:51.116Z,18.41
2023-05-21T16:57:18.457Z,18.19
2023-05-21T16:59:45.799Z,18.12
2023-05-21T17:02:13.949Z,18.02
2023-05-21T17:04:43.698Z,17.88
2023-05-21T17:07:10.840Z,17.85
2023-05-21T17:09:38.006Z,17.76
2023-05-21T17:12:05.422Z,17.67
2023-05-21T17:14:34.634Z,17.52
2023-05-21T17:17:02.306Z,17.37
2023-05-21T17:19:29.842Z,17.25
2023-05-21T17:21:57.221Z,17.23
2023-05-21T17:24:24.645Z,17.26
2023-05-21T17:26:53.321Z,17.29
2023-05-21T17:29:20.637Z,17.18
2023-05-21T17:31:47.945Z,17.01
2023-05-21T17:34:15.393Z,16.86
2023-05-21T17:36:46.215Z,16.70
2023-05-21T17:39:13.676Z,16.52
2023-05-21T17:41:40.866Z,16.33
2023-05-21T17:44:08.441Z,16.23
2023-05-21T17:46:35.725Z,16.08
2023-05-21T17:49:03.187Z,15.95
2023-05-21T17:51:31.630Z,15.82
2023-05-21T17:53:58.990Z,15.64
2023-05-21T17:56:27.069Z,15.58
2023-05-21T17:58:54.410Z,15.45
2023-05-21T18:01:21.761Z,15.33
2023-05-21T18:03:49.131Z,15.22
2023-05-21T18:06:16.447Z,15.10
2023-05-21T18:08:43.540Z,14.97
2023-05-21T18:11:11.090Z,14.90
2023-05-21T18:13:38.523Z,14.81
2023-05-21T18:16:06.039Z,14.74
2023-05-21T18:18:33.421Z,14.65
2023-05-21T18:21:00.623Z,14.56
2023-05-21T18:23:28.819Z,14.39
2023-05-21T18:25:56.481Z,14.41
2023-05-21T18:28:23.685Z,14.31
2023-05-21T18:30:51.156Z,14.22
2023-05-21T18:33:18.407Z,14.14
2023-05-21T18:35:45.562Z,14.03
2023-05-21T18:38:13.364Z,13.99
2023-05-21T18:40:40.786Z,13.92
2023-05-21T18:43:08.011Z,13.85
2023-05-21T18:45:35.198Z,13.78
2023-05-21T18:48:03.295Z,13.71
2023-05-21T18:50:31.893Z,13.68
2023-05-21T18:52:59.142Z,13.63
2023-05-21T18:55:26.630Z,13.61
2023-05-21T18:57:55.686Z,13.60
2023-05-21T19:00:23.265Z,13.57
2023-05-21T19:02:51.361Z,13.52
2023-05-21T19:05:18.655Z,13.47
2023-05-21T19:07:45.925Z,13.40
2023-05-21T19:10:13.275Z,13.32
2023-05-21T19:12:42.011Z,13.26
2023-05-21T19:15:09.991Z,13.20
2023-05-21T19:17:39.181Z,13.15
2023-05-21T19:20:08.197Z,13.12
2023-05-21T19:22:37.325Z,13.08
2023-05-21T19:25:04.962Z,13.05
2023-05-21T19:27:34.592Z,13.00
2023-05-21T19:30:01.796Z,12.96
2023-05-21T19:32:34.736Z,12.90
2023-05-21T19:35:04.675Z,12.89
2023-05-21T19:37:34.394Z,12.84
2023-05-21T19:40:01.807Z,12.80
2023-05-21T19:42:32.254Z,12.77
2023-05-21T19:44:59.337Z,12.73
2023-05-21T19:47:27.423Z,12.70
2023-05-21T19:49:55.827Z,12.67
2023-05-21T19:52:22.957Z,12.62
2023-05-21T19:54:50.046Z,12.59
2023-05-21T19:57:17.297Z,12.55
2023-05-21T19:59:44.468Z,12.50
2023-05-21T20:02:17.162Z,12.47
2023-05-21T20:04:44.239Z,12.42
2023-05-21T20:07:11.388Z,12.39
2023-05-21T20:09:39.146Z,12.35
2023-05-21T20:12:06.647Z,12.33
2023-05-21T20:14:34.546Z,12.33
2023-05-21T20:17:01.862Z,12.30
2023-05-21T20:19:29.106Z,12.28
2023-05-21T20:21:56.875Z,12.22
2023-05-21T20:24:24.177Z,12.19
2023-05-21T20:26:51.432Z,12.18
2023-05-21T20:29:18.856Z,12.14
2023-05-21T20:31:47.045Z,12.15
2023-05-21T20:34:14.276Z,12.13
2023-05-21T20:36:41.419Z,12.09
2023-05-21T20:39:09.587Z,12.07
2023-05-21T20:41:37.872Z,12.05
2023-05-21T20:44:06.424Z,12.03
2023-05-21T20:46:34.464Z,12.06
2023-05-21T20:49:01.751Z,12.10
2023-05-21T20:51:28.872Z,12.05
2023-05-21T20:53:57.274Z,12.04
2023-05-21T20:56:40.825Z,12.01
2023-05-21T20:59:11.274Z,11.96
2023-05-21T21:01:41.199Z,11.92
2023-05-21T21:04:09.068Z,11.85
2023-05-21T21:06:38.438Z,11.84
2023-05-21T21:09:05.954Z,11.79
2023-05-21T21:11:33.208Z,11.75
2023-05-21T21:14:02.695Z,11.70
2023-05-21T21:16:30.116Z,11.68
2023-05-21T21:18:57.609Z,11.63
2023-05-21T21:21:25.004Z,11.60
2023-05-21T21:23:52.135Z,11.57
2023-05-21T21:26:19.525Z,11.55
2023-05-21T21:28:46.770Z,11.53
2023-05-21T21:31:14.136Z,11.53
2023-05-21T21:33:41.571Z,11.56
2023-05-21T21:36:12.476Z,11.60
2023-05-21T21:38:39.498Z,11.66
2023-05-21T21:41:07.939Z,11.69
2023-05-21T21:43:35.072Z,11.69
2023-05-21T21:46:02.192Z,11.69
2023-05-21T21:48:29.523Z,11.67
2023-05-21T21:50:57.025Z,11.63
2023-05-21T21:53:24.172Z,11.60
2023-05-21T21:55:51.782Z,11.60
2023-05-21T21:58:18.962Z,11.59
2023-05-21T22:00:46.207Z,11.56
2023-05-21T22:03:14.706Z,11.53
2023-05-21T22:05:42.794Z,11.49
2023-05-21T22:08:10.222Z,11.46
2023-05-21T22:10:38.573Z,11.43
2023-05-21T22:13:05.870Z,11.39
2023-05-21T22:15:33.288Z,11.35
2023-05-21T22:18:04.035Z,11.34
2023-05-21T22:20:31.159Z,11.30
2023-05-21T22:22:58.899Z,11.28
2023-05-21T22:25:26.601Z,11.29
2023-05-21T22:27:53.864Z,11.33
2023-05-21T22:30:21.096Z,11.35
2023-05-21T22:32:48.373Z,11.37
2023-05-21T22:35:15.796Z,11.38
2023-05-21T22:37:42.840Z,11.43
2023-05-21T22:40:10.571Z,11.44
2023-05-21T22:42:38.245Z,11.54
2023-05-21T22:45:05.854Z,11.54
2023-05-21T22:47:33.836Z,11.60
2023-05-21T22:50:04.407Z,11.61
2023-05-21T22:52:32.016Z,11.61
2023-05-21T22:55:00.766Z,11.62
2023-05-21T22:57:28.335Z,11.58
2023-05-21T22:59:55.533Z,11.56
2023-05-21T23:02:22.769Z,11.56
2023-05-21T23:04:50.578Z,11.53
2023-05-21T23:07:17.744Z,11.53
2023-05-21T23:09:44.958Z,11.48
2023-05-21T23:12:12.596Z,11.51
2023-05-21T23:14:39.705Z,11.51
2023-05-21T23:17:07.619Z,11.49
2023-05-21T23:19:34.762Z,11.53
2023-05-21T23:22:02.112Z,11.50
2023-05-21T23:24:29.789Z,11.48
2023-05-21T23:27:02.082Z,11.46
2023-05-21T23:29:30.583Z,11.42
2023-05-21T23:31:58.307Z,11.45
2023-05-21T23:34:25.906Z,11.44
2023-05-21T23:36:53.330Z,11.43
2023-05-21T23:39:21.245Z,11.39
2023-05-21T23:41:48.859Z,11.42
2023-05-21T23:44:16.278Z,11.40
2023-05-21T23:46:43.498Z,11.40
2023-05-21T23:49:10.714Z,11.43
2023-05-21T23:51:39.112Z,11.42
2023-05-21T23:54:06.794Z,11.39
2023-05-21T23:56:34.082Z,11.43
2023-05-21T23:59:01.415Z,11.46
